Timeline UpdatesTrip UpdatesNews PostsPvt PostsTravel TipsAdmin PostsConv PostsFollowed PostsChat RequestsBlog PostsPNR Posts

Disclaimer
Search
 
 
Wed Aug 20, 2014 22:03:53 ISTHomeTrainsΣChainsAtlasPNRForumGalleryNewsFAQTripsMembersLoginFeedback
Latest...
.
Tue Jun 17, 2014 (04:25PM)
⇐ Return Journey: Train# 11124

11123/Barauni-Gwalior Mail

Dec 31 2013 (1:17PM)
Change Departure Station:
Change Arrival Station:
Post a Train Travel TipPost a Train Travel Tip **new
Post a Comment/Question/Picture/VideoPost a Comment/Question/Picture/Video
Pantry/Catering
✕ NO Pantry Car
✕ NO Catering
Loco/Rake Reversals
JHS/Jhansi Junction (7);
RSA - Rake Sharing
Rake/Coach Composition
.LOCO<-SLR-GN-GN-GN-A1-B1-B2-S1-S2-S3-S4-S5-S6-S7-S8-S9-S10-GN-GN-SLR.
Loco
Hauled by WDM 3A/3B from BJU-GWL
News    PNR    Forum    Time-Table    Availability    Fare Chart    Map    Arr/Dep History    Trips    Gallery    ΣChains    X/O    Timeline    
Travel Time: 3h 40m    6 halts    Distance: 146 km    Avg Speed: 39 km/hr
Type: Mail/Express
Zone: NCR/North Central
Departs @ 18:45 (Avg 18m late)
Platform# 9
SMTWTFS
Barauni Junction/BJU 
Arrives @ 22:25 (Avg 1h 9m late)
Platform# 1
SMTWTFS
Sarai/SAI 

6 halts. 26 intermediate Stations between Barauni Junction and Sarai

Show ALL intermediate Stations  Show Old Time-Table

#CodeStation NameX/OArrivesAvgDepartsAvgHaltPFDay#KmSpeedElevZoneAddress
1BJU»Barauni Junction (9)»  -18:45+18910.05749mECRBegusarai, Bihar
2DSSDalsingh Sarai (2)O  19:14+3319:15+341m1127.346 ECR06278-221238, Bihar
3SPJSamastipur Junction (9)  19:45+3819:55+3810m--150.55855mECRSamastipur, Bihar
4KRBPKhudiram B Pusa  20:09+4420:10+451m--164.26252mECRDistt. Samastipur, Bihar
5DOLDholi (2)  20:23+4820:24+521m--177.524 ECRDistt. Muzaffarpur, Bihar
6MFPMuzaffarpur Junction (6)X  21:28+4021:35+457m31102.75357mECRMuzaffarpur, Bihar
7BNRBhagwanpur (2)O  22:14+1:0522:15+1:071m21136.85460mECRBhagwanpur, Bihar
8SAI•Sarai (1)•X  22:25+1:0922:26+1:131m11145.93554mECRVaishali, Bihar
9HJPHajipur Junction (3)  22:44+1:1022:45+1:201m11156.53355mECR06224-272230, Bihar
10SEESonpur Junction (4)  22:55+1:2323:00+1:265m--1162.03756mECRSaran, Bihar
11DGADighwara (2)  23:38+1:1523:39+1:161m11185.14560mECR06158-281240, Bihar
12CPRChhapra Junction (6)  00:20+1:3100:30+1:3110m--2216.17958mNERDistt: Saran, Bihar
13DDADuraundha Junction (3)X  01:03+1:4001:04+1:411m--2259.55164mNERDistt: Siwan, Bihar
14SVSiwan Junction (4)  01:25+1:3701:30+1:385m--2277.35870mNERSiwan, Bihar
15MWMairwa (2)  01:52+1:4001:53+1:411m--2298.63973mNERMairwa, Bihar
16BTKBankata (2)  02:03+1:4002:04+1:421m--2305.02773mNERDeoria, Uttar Pradesh
17BHTRBhatpar Rani (2)X  02:22+1:3702:23+1:381m--2313.14173mNERDeoria, Uttar Pradesh
18BTTBhatni Junction (5)X  02:42+1:3102:48+1:306m--2326.07373mNERDeoria, Uttar Pradesh
19DEOSDeoria Sadar (3)X  03:05+1:4003:06+1:451m22346.84579mNERDeoria- 274001, Uttar Pradesh
20GBGauri Bazar (2)X  03:26+1:4503:27+1:471m--2361.83682mNERDistrict Deoria- Pincode- 274202, Uttar Pradesh
21CCChauri Chaura (2)X  03:43+1:4003:44+1:411m--2371.52684mNERGorakhpur- PinCode:- 273201, Uttar Pradesh
22GKPGorakhpur Junction (10)X  04:40+1:3904:55+1:4115m12395.94084mNERGorakhpur 273001, Uttar Pradesh
23SWASahjanwa (2)X  05:21+1:4705:22+1:491m--2413.04480mNERGorakhpur - 273209, Uttar Pradesh
24KLDKhalilabad (3)  05:45+1:4405:46+1:451m--2429.86186mNERKhalilabad- 272175, Uttar Pradesh
25BSTBasti (4)X  06:15+1:4406:20+1:445m12459.37790mNERBasti 272001, Uttar Pradesh
26BVBabhnan (2)  06:44+1:4806:45+1:501m--2490.150101mNERDistrict- Basti, Uttar Pradesh
27MSWMaskanwa (2)X07:04+1:4707:06+1:492m--2505.870103mNERChhapaiya Rd, Uttar Pradesh
28MURMankapur Junction (5)X  07:18+1:5407:20+1:542m12519.948104mNERDistrict Gonda, Uttar Pradesh
29GDGonda Junction (3)X  07:55+1:5008:10+1:4215m12547.869110mNERGonda 271001, Uttar Pradesh
30CLJColonelGanj (2)X  08:35+1:5008:36+1:511m12576.736108mNERGonda, Uttar Pradesh
31BUWBurhwal Junction (3)X  09:32+1:2809:34+1:322m12610.023119mNERBarabanki, Uttar Pradesh
32BBKBarabanki Junction (4)X  10:45+1:0510:47+1:062m22637.132122mNRPin-225001, Uttar Pradesh
33LKOLucknow Charbagh (9)  11:40+1:0111:50+1:0410m52665.649123mNR226004, Uttar Pradesh
34ONUnnao Junction (5)X  12:57+5412:58+561m--2720.228129mNRUnnao, Uttar Pradesh
35CNBKanpur Central (10)X  13:35+5613:45+1:0210m--2737.616128mNCRKANPUR-208 001, Uttar Pradesh
36GOYGovindpuri Junction (2)  13:59+1:1914:00+1:201m12741.441129mNCRKANPUR-208 006, Uttar Pradesh
37BZMBhimsen (1)  14:15+1:1214:16+1:181m12751.657136mNCRKanpur, Uttar Pradesh
38PMNPamanX  14:32+1:1814:33+1:221m--2766.856132mNCRNational Highway 2, Uttar Pradesh
39LLRLalpur (1)X14:48+1:1814:50+1:202m12780.8-137mNCRKanpur Dehat, Uttar Pradesh
40PHNPokhrayan (2)X  14:56+1:3014:57+1:321m12796.053133mNCRPukhrayan, Uttar Pradesh
41KPIKalpi  15:14+1:3215:15+1:391m--2811.163114mNCRKalpi Orai(05162-252206), Uttar Pradesh
42ORAIOrai (3)  15:46+1:3915:47+1:451m--2843.862139mNCROrai(05162-252206), Uttar Pradesh
43AITAit Junction (2)X  16:11+1:5116:12+1:531m12868.550154mNCROrai(05162-252206), Uttar Pradesh
44MOTHMoth  16:53+1:4716:54+1:491m--2902.571175mNCRJhansi, Uttar Pradesh
45CGNChirgaon  17:14+1:5117:15+1:561m--2926.027192mNCRChirgaon, Uttar Pradesh
46JHSJhansi Junction (7)↵¶18:25+1:2618:40+1:3815m32957.848259mNCRJhansi, Uttar Pradesh
47DAADatia (2)X  19:11+1:2519:12+1:251m--2982.876264mNCRDatia, Madhya Pradesh
48DBADabra (3)X  19:36+1:3019:37+1:321m--21013.231 NCRDabra(District-Gwalior), Madhya Pradesh
49GWLGwalior Junction (4)  21:00+54-421055.5-214mNCRGwalior, Madhya Pradesh
Scroll to Top
Scroll to Bottom